sensor_id;sensor_type;location;lat;lon;timestamp;P1;durP1;ratioP1;P2;durP2;ratioP2
2111;SDS011;1062;52.538;13.400;2023-07-31T00:00:30;1.87;;;1.47;;
2111;SDS011;1062;52.538;13.400;2023-07-31T00:02:58;2.30;;;2.10;;
2111;SDS011;1062;52.538;13.400;2023-07-31T00:05:26;2.73;;;1.50;;
2111;SDS011;1062;52.538;13.400;2023-07-31T00:07:52;2.57;;;1.80;;
2111;SDS011;1062;52.538;13.400;2023-07-31T00:10:19;5.20;;;2.17;;
2111;SDS011;1062;52.538;13.400;2023-07-31T00:15:28;2.73;;;1.70;;
2111;SDS011;1062;52.538;13.400;2023-07-31T00:17:54;1.93;;;1.50;;
2111;SDS011;1062;52.538;13.400;2023-07-31T00:20:19;3.00;;;2.13;;
2111;SDS011;1062;52.538;13.400;2023-07-31T00:22:45;3.80;;;1.60;;
2111;SDS011;1062;52.538;13.400;2023-07-31T00:25:11;2.33;;;1.73;;
2111;SDS011;1062;52.538;13.400;2023-07-31T00:27:37;1.83;;;1.50;;
2111;SDS011;1062;52.538;13.400;2023-07-31T00:30:05;1.93;;;1.60;;
2111;SDS011;1062;52.538;13.400;2023-07-31T00:32:31;2.97;;;2.00;;
2111;SDS011;1062;52.538;13.400;2023-07-31T00:34:57;3.57;;;1.50;;
2111;SDS011;1062;52.538;13.400;2023-07-31T00:37:23;3.23;;;1.87;;
2111;SDS011;1062;52.538;13.400;2023-07-31T00:39:54;3.60;;;1.50;;
2111;SDS011;1062;52.538;13.400;2023-07-31T00:42:28;1.90;;;1.40;;
2111;SDS011;1062;52.538;13.400;2023-07-31T00:44:54;3.33;;;1.87;;
2111;SDS011;1062;52.538;13.400;2023-07-31T00:47:22;1.90;;;1.80;;
2111;SDS011;1062;52.538;13.400;2023-07-31T00:49:53;2.33;;;1.70;;
2111;SDS011;1062;52.538;13.400;2023-07-31T00:52:22;3.77;;;1.90;;
2111;SDS011;1062;52.538;13.400;2023-07-31T00:54:50;4.80;;;2.00;;
2111;SDS011;1062;52.538;13.400;2023-07-31T00:57:16;3.13;;;2.17;;
2111;SDS011;1062;52.538;13.400;2023-07-31T00:59:44;1.83;;;1.40;;
2111;SDS011;1062;52.538;13.400;2023-07-31T01:02:12;6.20;;;1.90;;
2111;SDS011;1062;52.538;13.400;2023-07-31T01:04:38;5.87;;;1.80;;
2111;SDS011;1062;52.538;13.400;2023-07-31T01:07:08;3.17;;;2.37;;
2111;SDS011;1062;52.538;13.400;2023-07-31T01:09:53;2.43;;;1.90;;
2111;SDS011;1062;52.538;13.400;2023-07-31T01:12:27;1.80;;;1.57;;
2111;SDS011;1062;52.538;13.400;2023-07-31T01:15:04;2.87;;;1.87;;
2111;SDS011;1062;52.538;13.400;2023-07-31T01:17:39;3.87;;;1.63;;
2111;SDS011;1062;52.538;13.400;2023-07-31T01:20:08;3.10;;;1.87;;
2111;SDS011;1062;52.538;13.400;2023-07-31T01:31:18;1.90;;;1.80;;
2111;SDS011;1062;52.538;13.400;2023-07-31T01:33:50;2.93;;;2.07;;
2111;SDS011;1062;52.538;13.400;2023-07-31T01:36:19;2.60;;;2.27;;
2111;SDS011;1062;52.538;13.400;2023-07-31T01:38:45;3.20;;;1.80;;
2111;SDS011;1062;52.538;13.400;2023-07-31T01:41:13;2.93;;;2.00;;
2111;SDS011;1062;52.538;13.400;2023-07-31T01:43:43;3.47;;;2.17;;
2111;SDS011;1062;52.538;13.400;2023-07-31T01:46:13;2.23;;;2.03;;
2111;SDS011;1062;52.538;13.400;2023-07-31T01:48:38;1.90;;;1.80;;
2111;SDS011;1062;52.538;13.400;2023-07-31T01:51:07;2.53;;;2.33;;
2111;SDS011;1062;52.538;13.400;2023-07-31T01:53:33;2.00;;;1.90;;
2111;SDS011;1062;52.538;13.400;2023-07-31T01:55:59;3.53;;;2.50;;
2111;SDS011;1062;52.538;13.400;2023-07-31T01:58:25;2.00;;;1.80;;
2111;SDS011;1062;52.538;13.400;2023-07-31T02:00:53;2.50;;;2.30;;
2111;SDS011;1062;52.538;13.400;2023-07-31T02:03:19;3.20;;;2.27;;
2111;SDS011;1062;52.538;13.400;2023-07-31T02:05:48;3.23;;;2.23;;
2111;SDS011;1062;52.538;13.400;2023-07-31T02:08:19;2.37;;;2.17;;
2111;SDS011;1062;52.538;13.400;2023-07-31T02:10:45;2.83;;;2.37;;
2111;SDS011;1062;52.538;13.400;2023-07-31T02:13:19;3.83;;;2.40;;
2111;SDS011;1062;52.538;13.400;2023-07-31T02:15:45;3.83;;;1.90;;
2111;SDS011;1062;52.538;13.400;2023-07-31T02:18:11;3.57;;;2.40;;
2111;SDS011;1062;52.538;13.400;2023-07-31T02:20:39;4.50;;;2.30;;
2111;SDS011;1062;52.538;13.400;2023-07-31T02:23:08;3.40;;;2.20;;
2111;SDS011;1062;52.538;13.400;2023-07-31T02:25:34;2.90;;;2.40;;
2111;SDS011;1062;52.538;13.400;2023-07-31T02:28:05;6.30;;;2.60;;
2111;SDS011;1062;52.538;13.400;2023-07-31T02:30:31;2.70;;;2.50;;
2111;SDS011;1062;52.538;13.400;2023-07-31T02:32:57;5.40;;;2.80;;
2111;SDS011;1062;52.538;13.400;2023-07-31T02:35:23;3.50;;;2.30;;
2111;SDS011;1062;52.538;13.400;2023-07-31T02:37:51;2.83;;;2.50;;
2111;SDS011;1062;52.538;13.400;2023-07-31T02:40:17;2.13;;;2.00;;
2111;SDS011;1062;52.538;13.400;2023-07-31T02:42:45;2.50;;;2.30;;
2111;SDS011;1062;52.538;13.400;2023-07-31T02:45:11;4.27;;;2.80;;
2111;SDS011;1062;52.538;13.400;2023-07-31T02:47:40;6.13;;;3.20;;
2111;SDS011;1062;52.538;13.400;2023-07-31T02:50:06;5.00;;;2.50;;
2111;SDS011;1062;52.538;13.400;2023-07-31T02:52:32;4.70;;;2.20;;
2111;SDS011;1062;52.538;13.400;2023-07-31T02:54:58;2.70;;;2.23;;
2111;SDS011;1062;52.538;13.400;2023-07-31T02:57:23;3.03;;;2.73;;
2111;SDS011;1062;52.538;13.400;2023-07-31T02:59:49;5.20;;;2.00;;
2111;SDS011;1062;52.538;13.400;2023-07-31T03:02:17;3.27;;;2.50;;
2111;SDS011;1062;52.538;13.400;2023-07-31T03:04:45;3.53;;;2.73;;
2111;SDS011;1062;52.538;13.400;2023-07-31T03:07:12;6.63;;;2.60;;
2111;SDS011;1062;52.538;13.400;2023-07-31T03:09:37;4.33;;;2.70;;
2111;SDS011;1062;52.538;13.400;2023-07-31T03:12:05;4.57;;;3.00;;
2111;SDS011;1062;52.538;13.400;2023-07-31T03:14:34;4.10;;;2.70;;
2111;SDS011;1062;52.538;13.400;2023-07-31T03:17:05;5.93;;;3.17;;
2111;SDS011;1062;52.538;13.400;2023-07-31T03:19:31;4.03;;;2.73;;
2111;SDS011;1062;52.538;13.400;2023-07-31T03:21:57;5.00;;;2.80;;
2111;SDS011;1062;52.538;13.400;2023-07-31T03:24:24;3.40;;;3.10;;
2111;SDS011;1062;52.538;13.400;2023-07-31T03:26:50;7.10;;;3.10;;
2111;SDS011;1062;52.538;13.400;2023-07-31T03:29:16;6.07;;;2.77;;
2111;SDS011;1062;52.538;13.400;2023-07-31T03:31:42;7.17;;;4.17;;
2111;SDS011;1062;52.538;13.400;2023-07-31T03:34:12;6.00;;;3.20;;
2111;SDS011;1062;52.538;13.400;2023-07-31T03:36:44;4.40;;;3.10;;
2111;SDS011;1062;52.538;13.400;2023-07-31T03:39:10;8.13;;;3.97;;
2111;SDS011;1062;52.538;13.400;2023-07-31T03:41:38;3.83;;;3.50;;
2111;SDS011;1062;52.538;13.400;2023-07-31T03:44:04;4.37;;;2.77;;
2111;SDS011;1062;52.538;13.400;2023-07-31T03:46:32;4.97;;;4.20;;
2111;SDS011;1062;52.538;13.400;2023-07-31T03:48:58;4.70;;;3.40;;
2111;SDS011;1062;52.538;13.400;2023-07-31T03:51:24;5.60;;;3.60;;
2111;SDS011;1062;52.538;13.400;2023-07-31T03:53:50;5.13;;;3.67;;
2111;SDS011;1062;52.538;13.400;2023-07-31T03:56:16;5.17;;;3.30;;
2111;SDS011;1062;52.538;13.400;2023-07-31T03:58:46;5.03;;;3.60;;
2111;SDS011;1062;52.538;13.400;2023-07-31T04:01:14;5.60;;;4.53;;
2111;SDS011;1062;52.538;13.400;2023-07-31T04:03:42;5.30;;;3.57;;
2111;SDS011;1062;52.538;13.400;2023-07-31T04:06:11;6.23;;;4.00;;
2111;SDS011;1062;52.538;13.400;2023-07-31T04:08:45;4.43;;;3.37;;
2111;SDS011;1062;52.538;13.400;2023-07-31T04:11:12;6.97;;;3.60;;
2111;SDS011;1062;52.538;13.400;2023-07-31T04:13:40;7.67;;;4.43;;
2111;SDS011;1062;52.538;13.400;2023-07-31T04:16:06;3.97;;;3.57;;
2111;SDS011;1062;52.538;13.400;2023-07-31T04:18:37;4.17;;;3.37;;
2111;SDS011;1062;52.538;13.400;2023-07-31T04:21:08;6.00;;;4.10;;
2111;SDS011;1062;52.538;13.400;2023-07-31T04:23:38;8.13;;;3.20;;
2111;SDS011;1062;52.538;13.400;2023-07-31T04:26:07;8.60;;;3.03;;
2111;SDS011;1062;52.538;13.400;2023-07-31T04:28:33;6.27;;;3.50;;
2111;SDS011;1062;52.538;13.400;2023-07-31T04:31:01;5.30;;;3.50;;
2111;SDS011;1062;52.538;13.400;2023-07-31T04:33:30;7.30;;;3.83;;
2111;SDS011;1062;52.538;13.400;2023-07-31T04:35:56;9.67;;;4.27;;
2111;SDS011;1062;52.538;13.400;2023-07-31T04:38:29;9.90;;;3.50;;
2111;SDS011;1062;52.538;13.400;2023-07-31T04:40:59;4.10;;;3.80;;
2111;SDS011;1062;52.538;13.400;2023-07-31T04:43:25;6.10;;;3.90;;
2111;SDS011;1062;52.538;13.400;2023-07-31T04:45:54;5.70;;;3.40;;
2111;SDS011;1062;52.538;13.400;2023-07-31T04:48:20;4.93;;;3.80;;
2111;SDS011;1062;52.538;13.400;2023-07-31T04:50:47;5.00;;;3.67;;
2111;SDS011;1062;52.538;13.400;2023-07-31T04:53:21;4.03;;;3.40;;
2111;SDS011;1062;52.538;13.400;2023-07-31T04:56:03;5.03;;;3.60;;
2111;SDS011;1062;52.538;13.400;2023-07-31T04:58:29;5.37;;;3.73;;
2111;SDS011;1062;52.538;13.400;2023-07-31T05:00:55;4.70;;;3.50;;
2111;SDS011;1062;52.538;13.400;2023-07-31T05:03:26;3.90;;;3.20;;
2111;SDS011;1062;52.538;13.400;2023-07-31T05:05:52;3.13;;;2.87;;
2111;SDS011;1062;52.538;13.400;2023-07-31T05:08:20;3.90;;;3.57;;
2111;SDS011;1062;52.538;13.400;2023-07-31T05:10:46;7.53;;;3.53;;
2111;SDS011;1062;52.538;13.400;2023-07-31T05:13:15;6.13;;;3.47;;
2111;SDS011;1062;52.538;13.400;2023-07-31T05:15:43;3.23;;;2.93;;
2111;SDS011;1062;52.538;13.400;2023-07-31T05:18:11;4.10;;;3.40;;
2111;SDS011;1062;52.538;13.400;2023-07-31T05:20:39;4.17;;;3.27;;
2111;SDS011;1062;52.538;13.400;2023-07-31T05:23:08;7.00;;;3.47;;
2111;SDS011;1062;52.538;13.400;2023-07-31T05:25:36;5.63;;;3.47;;
2111;SDS011;1062;52.538;13.400;2023-07-31T05:28:02;4.70;;;3.37;;
2111;SDS011;1062;52.538;13.400;2023-07-31T05:30:29;4.60;;;3.30;;
2111;SDS011;1062;52.538;13.400;2023-07-31T05:32:56;8.70;;;4.17;;
2111;SDS011;1062;52.538;13.400;2023-07-31T05:35:29;4.83;;;2.83;;
2111;SDS011;1062;52.538;13.400;2023-07-31T05:38:02;8.00;;;3.40;;
2111;SDS011;1062;52.538;13.400;2023-07-31T05:40:28;4.57;;;3.03;;
2111;SDS011;1062;52.538;13.400;2023-07-31T05:42:59;8.83;;;3.43;;
2111;SDS011;1062;52.538;13.400;2023-07-31T05:45:25;5.40;;;3.10;;
2111;SDS011;1062;52.538;13.400;2023-07-31T05:47:58;6.00;;;3.00;;
2111;SDS011;1062;52.538;13.400;2023-07-31T05:50:26;7.17;;;3.33;;
2111;SDS011;1062;52.538;13.400;2023-07-31T05:52:52;7.33;;;3.13;;
2111;SDS011;1062;52.538;13.400;2023-07-31T05:55:24;3.80;;;3.00;;
2111;SDS011;1062;52.538;13.400;2023-07-31T05:57:58;3.50;;;2.90;;
2111;SDS011;1062;52.538;13.400;2023-07-31T06:00:24;4.33;;;3.47;;
2111;SDS011;1062;52.538;13.400;2023-07-31T06:02:53;5.77;;;3.50;;
2111;SDS011;1062;52.538;13.400;2023-07-31T06:05:19;8.10;;;3.30;;
2111;SDS011;1062;52.538;13.400;2023-07-31T06:07:47;8.20;;;3.00;;
2111;SDS011;1062;52.538;13.400;2023-07-31T06:10:13;5.67;;;3.20;;
2111;SDS011;1062;52.538;13.400;2023-07-31T06:12:40;5.20;;;3.30;;
2111;SDS011;1062;52.538;13.400;2023-07-31T06:15:06;4.27;;;2.90;;
2111;SDS011;1062;52.538;13.400;2023-07-31T06:17:35;5.93;;;2.97;;
2111;SDS011;1062;52.538;13.400;2023-07-31T06:20:06;4.00;;;3.70;;
2111;SDS011;1062;52.538;13.400;2023-07-31T06:22:32;4.17;;;2.93;;
2111;SDS011;1062;52.538;13.400;2023-07-31T06:25:00;5.73;;;3.53;;
2111;SDS011;1062;52.538;13.400;2023-07-31T06:27:28;3.30;;;3.00;;
2111;SDS011;1062;52.538;13.400;2023-07-31T06:29:54;4.53;;;3.10;;
2111;SDS011;1062;52.538;13.400;2023-07-31T06:32:20;6.10;;;3.73;;
2111;SDS011;1062;52.538;13.400;2023-07-31T06:34:49;5.17;;;3.60;;
2111;SDS011;1062;52.538;13.400;2023-07-31T06:37:19;6.00;;;3.30;;
2111;SDS011;1062;52.538;13.400;2023-07-31T06:39:47;3.90;;;2.70;;
2111;SDS011;1062;52.538;13.400;2023-07-31T06:42:23;3.60;;;2.80;;
2111;SDS011;1062;52.538;13.400;2023-07-31T06:44:52;4.87;;;3.10;;
2111;SDS011;1062;52.538;13.400;2023-07-31T06:47:20;5.30;;;3.10;;
2111;SDS011;1062;52.538;13.400;2023-07-31T06:49:46;5.33;;;2.40;;
2111;SDS011;1062;52.538;13.400;2023-07-31T06:52:12;4.60;;;2.87;;
2111;SDS011;1062;52.538;13.400;2023-07-31T06:54:38;5.27;;;2.50;;
2111;SDS011;1062;52.538;13.400;2023-07-31T06:57:04;5.80;;;3.00;;
2111;SDS011;1062;52.538;13.400;2023-07-31T06:59:30;2.03;;;1.90;;
2111;SDS011;1062;52.538;13.400;2023-07-31T07:02:01;3.30;;;2.30;;
2111;SDS011;1062;52.538;13.400;2023-07-31T07:04:29;4.53;;;2.50;;
2111;SDS011;1062;52.538;13.400;2023-07-31T07:06:55;5.50;;;2.97;;
2111;SDS011;1062;52.538;13.400;2023-07-31T07:09:21;2.73;;;2.43;;
2111;SDS011;1062;52.538;13.400;2023-07-31T07:11:47;5.50;;;2.43;;
2111;SDS011;1062;52.538;13.400;2023-07-31T07:14:16;3.80;;;2.43;;
2111;SDS011;1062;52.538;13.400;2023-07-31T07:16:45;4.40;;;2.90;;
2111;SDS011;1062;52.538;13.400;2023-07-31T07:19:15;2.77;;;2.57;;
2111;SDS011;1062;52.538;13.400;2023-07-31T07:21:41;6.40;;;2.50;;
2111;SDS011;1062;52.538;13.400;2023-07-31T07:24:07;4.03;;;2.50;;
2111;SDS011;1062;52.538;13.400;2023-07-31T07:26:33;4.50;;;2.57;;
2111;SDS011;1062;52.538;13.400;2023-07-31T07:28:59;4.33;;;2.20;;
2111;SDS011;1062;52.538;13.400;2023-07-31T07:31:27;4.00;;;2.20;;
2111;SDS011;1062;52.538;13.400;2023-07-31T07:33:53;3.13;;;2.60;;
2111;SDS011;1062;52.538;13.400;2023-07-31T07:36:19;5.43;;;2.13;;
2111;SDS011;1062;52.538;13.400;2023-07-31T07:38:45;4.27;;;2.40;;
2111;SDS011;1062;52.538;13.400;2023-07-31T07:41:11;6.63;;;3.20;;
2111;SDS011;1062;52.538;13.400;2023-07-31T07:43:37;4.50;;;2.70;;
2111;SDS011;1062;52.538;13.400;2023-07-31T07:46:03;5.80;;;2.80;;
2111;SDS011;1062;52.538;13.400;2023-07-31T07:48:28;3.40;;;2.43;;
2111;SDS011;1062;52.538;13.400;2023-07-31T07:50:57;3.83;;;2.50;;
2111;SDS011;1062;52.538;13.400;2023-07-31T07:53:25;3.67;;;2.30;;
2111;SDS011;1062;52.538;13.400;2023-07-31T07:55:51;2.77;;;2.33;;
2111;SDS011;1062;52.538;13.400;2023-07-31T07:58:17;3.30;;;2.30;;
2111;SDS011;1062;52.538;13.400;2023-07-31T08:00:51;3.20;;;2.20;;
2111;SDS011;1062;52.538;13.400;2023-07-31T08:03:19;4.20;;;2.50;;
2111;SDS011;1062;52.538;13.400;2023-07-31T08:05:47;3.40;;;2.67;;
2111;SDS011;1062;52.538;13.400;2023-07-31T08:08:16;3.13;;;2.10;;
2111;SDS011;1062;52.538;13.400;2023-07-31T08:10:45;2.27;;;2.00;;
2111;SDS011;1062;52.538;13.400;2023-07-31T08:13:13;3.63;;;2.70;;
2111;SDS011;1062;52.538;13.400;2023-07-31T08:15:41;5.40;;;3.30;;
2111;SDS011;1062;52.538;13.400;2023-07-31T08:18:07;3.40;;;2.43;;
2111;SDS011;1062;52.538;13.400;2023-07-31T08:20:36;2.00;;;1.90;;
2111;SDS011;1062;52.538;13.400;2023-07-31T08:23:05;5.50;;;1.97;;
2111;SDS011;1062;52.538;13.400;2023-07-31T08:25:34;2.60;;;2.37;;
2111;SDS011;1062;52.538;13.400;2023-07-31T08:28:05;2.20;;;2.10;;
2111;SDS011;1062;52.538;13.400;2023-07-31T08:30:33;3.73;;;2.03;;
2111;SDS011;1062;52.538;13.400;2023-07-31T08:33:01;2.60;;;2.17;;
2111;SDS011;1062;52.538;13.400;2023-07-31T08:35:27;2.70;;;1.60;;
2111;SDS011;1062;52.538;13.400;2023-07-31T08:37:54;1.93;;;1.83;;
2111;SDS011;1062;52.538;13.400;2023-07-31T08:40:19;2.40;;;2.20;;
2111;SDS011;1062;52.538;13.400;2023-07-31T08:42:47;4.23;;;2.93;;
2111;SDS011;1062;52.538;13.400;2023-07-31T08:45:18;2.40;;;2.07;;
2111;SDS011;1062;52.538;13.400;2023-07-31T08:47:48;2.80;;;2.07;;
2111;SDS011;1062;52.538;13.400;2023-07-31T08:50:16;2.53;;;2.33;;
2111;SDS011;1062;52.538;13.400;2023-07-31T08:52:52;2.13;;;1.93;;
2111;SDS011;1062;52.538;13.400;2023-07-31T08:55:24;3.50;;;2.33;;
2111;SDS011;1062;52.538;13.400;2023-07-31T08:57:51;5.30;;;2.17;;
2111;SDS011;1062;52.538;13.400;2023-07-31T09:00:20;2.40;;;2.00;;
2111;SDS011;1062;52.538;13.400;2023-07-31T09:05:28;2.50;;;2.20;;
2111;SDS011;1062;52.538;13.400;2023-07-31T09:07:55;1.60;;;1.50;;
2111;SDS011;1062;52.538;13.400;2023-07-31T09:10:22;2.87;;;1.70;;
2111;SDS011;1062;52.538;13.400;2023-07-31T09:12:48;2.23;;;2.07;;
2111;SDS011;1062;52.538;13.400;2023-07-31T09:15:15;5.00;;;2.20;;
2111;SDS011;1062;52.538;13.400;2023-07-31T09:17:44;1.90;;;1.70;;
2111;SDS011;1062;52.538;13.400;2023-07-31T09:20:14;2.00;;;1.80;;
2111;SDS011;1062;52.538;13.400;2023-07-31T09:22:44;2.27;;;1.90;;
2111;SDS011;1062;52.538;13.400;2023-07-31T09:25:14;2.60;;;2.40;;
2111;SDS011;1062;52.538;13.400;2023-07-31T09:30:49;3.70;;;1.80;;
2111;SDS011;1062;52.538;13.400;2023-07-31T09:33:18;1.73;;;1.63;;
2111;SDS011;1062;52.538;13.400;2023-07-31T09:35:50;2.90;;;1.80;;
2111;SDS011;1062;52.538;13.400;2023-07-31T09:38:16;3.23;;;1.60;;
2111;SDS011;1062;52.538;13.400;2023-07-31T09:40:45;1.80;;;1.70;;
2111;SDS011;1062;52.538;13.400;2023-07-31T09:43:23;1.57;;;1.47;;
2111;SDS011;1062;52.538;13.400;2023-07-31T09:45:56;1.30;;;1.20;;
2111;SDS011;1062;52.538;13.400;2023-07-31T09:48:22;1.47;;;1.30;;
2111;SDS011;1062;52.538;13.400;2023-07-31T09:50:50;1.60;;;1.40;;
2111;SDS011;1062;52.538;13.400;2023-07-31T09:53:16;1.80;;;1.70;;
2111;SDS011;1062;52.538;13.400;2023-07-31T09:55:42;5.27;;;2.47;;
2111;SDS011;1062;52.538;13.400;2023-07-31T09:58:11;11.20;;;3.90;;
2111;SDS011;1062;52.538;13.400;2023-07-31T10:00:37;1.70;;;1.33;;
2111;SDS011;1062;52.538;13.400;2023-07-31T10:03:04;2.70;;;1.50;;
2111;SDS011;1062;52.538;13.400;2023-07-31T10:05:36;3.20;;;1.53;;
2111;SDS011;1062;52.538;13.400;2023-07-31T10:08:06;1.77;;;1.60;;
2111;SDS011;1062;52.538;13.400;2023-07-31T10:10:34;2.23;;;1.40;;
2111;SDS011;1062;52.538;13.400;2023-07-31T10:13:01;2.40;;;1.57;;
2111;SDS011;1062;52.538;13.400;2023-07-31T10:15:29;2.80;;;1.93;;
2111;SDS011;1062;52.538;13.400;2023-07-31T10:17:57;1.60;;;1.50;;
2111;SDS011;1062;52.538;13.400;2023-07-31T10:20:24;3.30;;;2.50;;
2111;SDS011;1062;52.538;13.400;2023-07-31T10:22:51;2.40;;;2.20;;
2111;SDS011;1062;52.538;13.400;2023-07-31T10:25:21;3.97;;;2.60;;
2111;SDS011;1062;52.538;13.400;2023-07-31T10:27:48;2.77;;;2.10;;
2111;SDS011;1062;52.538;13.400;2023-07-31T10:30:16;3.10;;;2.70;;
2111;SDS011;1062;52.538;13.400;2023-07-31T10:32:44;3.10;;;2.87;;
2111;SDS011;1062;52.538;13.400;2023-07-31T10:35:10;3.20;;;2.60;;
2111;SDS011;1062;52.538;13.400;2023-07-31T10:37:38;3.40;;;2.90;;
2111;SDS011;1062;52.538;13.400;2023-07-31T10:42:33;6.60;;;3.50;;
2111;SDS011;1062;52.538;13.400;2023-07-31T10:45:04;2.97;;;2.50;;
2111;SDS011;1062;52.538;13.400;2023-07-31T10:47:31;6.77;;;3.30;;
2111;SDS011;1062;52.538;13.400;2023-07-31T10:52:50;4.60;;;3.07;;
2111;SDS011;1062;52.538;13.400;2023-07-31T10:55:24;4.03;;;3.63;;
2111;SDS011;1062;52.538;13.400;2023-07-31T10:57:54;5.63;;;2.73;;
2111;SDS011;1062;52.538;13.400;2023-07-31T11:00:24;3.10;;;2.80;;
2111;SDS011;1062;52.538;13.400;2023-07-31T11:08:16;4.53;;;2.93;;
2111;SDS011;1062;52.538;13.400;2023-07-31T11:10:43;5.10;;;2.73;;
2111;SDS011;1062;52.538;13.400;2023-07-31T11:13:09;5.40;;;3.27;;
2111;SDS011;1062;52.538;13.400;2023-07-31T11:15:35;3.47;;;2.63;;
2111;SDS011;1062;52.538;13.400;2023-07-31T11:18:01;7.73;;;3.60;;
2111;SDS011;1062;52.538;13.400;2023-07-31T11:20:31;5.17;;;3.00;;
2111;SDS011;1062;52.538;13.400;2023-07-31T11:23:01;6.27;;;3.33;;
2111;SDS011;1062;52.538;13.400;2023-07-31T11:25:30;3.53;;;2.50;;
2111;SDS011;1062;52.538;13.400;2023-07-31T11:27:57;4.77;;;3.10;;
2111;SDS011;1062;52.538;13.400;2023-07-31T11:30:33;3.43;;;2.70;;
2111;SDS011;1062;52.538;13.400;2023-07-31T11:33:01;5.67;;;3.47;;
2111;SDS011;1062;52.538;13.400;2023-07-31T11:35:33;5.67;;;3.50;;
2111;SDS011;1062;52.538;13.400;2023-07-31T11:38:01;8.10;;;3.10;;
2111;SDS011;1062;52.538;13.400;2023-07-31T11:40:27;2.60;;;2.40;;
2111;SDS011;1062;52.538;13.400;2023-07-31T11:42:57;4.13;;;3.37;;
2111;SDS011;1062;52.538;13.400;2023-07-31T11:45:26;3.93;;;3.50;;
2111;SDS011;1062;52.538;13.400;2023-07-31T11:47:55;6.33;;;2.80;;
2111;SDS011;1062;52.538;13.400;2023-07-31T11:50:22;4.07;;;2.70;;
2111;SDS011;1062;52.538;13.400;2023-07-31T11:52:56;4.10;;;3.17;;
2111;SDS011;1062;52.538;13.400;2023-07-31T11:55:24;3.10;;;2.90;;
2111;SDS011;1062;52.538;13.400;2023-07-31T11:57:50;3.43;;;2.50;;
2111;SDS011;1062;52.538;13.400;2023-07-31T12:00:18;4.10;;;2.83;;
2111;SDS011;1062;52.538;13.400;2023-07-31T12:02:44;4.57;;;2.60;;
2111;SDS011;1062;52.538;13.400;2023-07-31T12:05:10;5.23;;;2.93;;
2111;SDS011;1062;52.538;13.400;2023-07-31T12:07:46;3.50;;;2.70;;
2111;SDS011;1062;52.538;13.400;2023-07-31T12:10:25;3.10;;;2.63;;
2111;SDS011;1062;52.538;13.400;2023-07-31T12:13:08;6.23;;;2.97;;
2111;SDS011;1062;52.538;13.400;2023-07-31T12:15:44;3.23;;;2.87;;
2111;SDS011;1062;52.538;13.400;2023-07-31T12:18:11;4.50;;;3.67;;
2111;SDS011;1062;52.538;13.400;2023-07-31T12:20:42;4.50;;;3.03;;
2111;SDS011;1062;52.538;13.400;2023-07-31T12:23:13;3.70;;;2.70;;
2111;SDS011;1062;52.538;13.400;2023-07-31T12:25:42;4.53;;;2.83;;
2111;SDS011;1062;52.538;13.400;2023-07-31T12:28:08;3.60;;;2.70;;
2111;SDS011;1062;52.538;13.400;2023-07-31T12:30:37;3.33;;;2.37;;
2111;SDS011;1062;52.538;13.400;2023-07-31T12:33:05;4.97;;;3.00;;
2111;SDS011;1062;52.538;13.400;2023-07-31T12:35:41;3.90;;;2.90;;
2111;SDS011;1062;52.538;13.400;2023-07-31T12:38:08;3.77;;;3.17;;
2111;SDS011;1062;52.538;13.400;2023-07-31T12:40:36;4.03;;;2.70;;
2111;SDS011;1062;52.538;13.400;2023-07-31T12:43:06;4.43;;;2.80;;
2111;SDS011;1062;52.538;13.400;2023-07-31T12:45:32;3.70;;;2.17;;
2111;SDS011;1062;52.538;13.400;2023-07-31T12:47:58;3.03;;;2.60;;
2111;SDS011;1062;52.538;13.400;2023-07-31T12:50:24;3.80;;;3.30;;
2111;SDS011;1062;52.538;13.400;2023-07-31T12:52:50;3.90;;;2.57;;
2111;SDS011;1062;52.538;13.400;2023-07-31T12:55:17;2.97;;;2.10;;
2111;SDS011;1062;52.538;13.400;2023-07-31T12:57:43;3.30;;;2.53;;
2111;SDS011;1062;52.538;13.400;2023-07-31T13:00:09;6.50;;;2.57;;
2111;SDS011;1062;52.538;13.400;2023-07-31T13:02:36;3.23;;;2.20;;
2111;SDS011;1062;52.538;13.400;2023-07-31T13:05:01;4.20;;;2.47;;
2111;SDS011;1062;52.538;13.400;2023-07-31T13:07:27;6.37;;;2.80;;
2111;SDS011;1062;52.538;13.400;2023-07-31T13:09:53;2.50;;;2.30;;
2111;SDS011;1062;52.538;13.400;2023-07-31T13:12:18;2.97;;;2.67;;
2111;SDS011;1062;52.538;13.400;2023-07-31T13:14:44;7.07;;;2.60;;
2111;SDS011;1062;52.538;13.400;2023-07-31T13:17:09;2.10;;;1.90;;
2111;SDS011;1062;52.538;13.400;2023-07-31T13:19:35;2.97;;;2.10;;
2111;SDS011;1062;52.538;13.400;2023-07-31T13:22:01;2.00;;;1.83;;
2111;SDS011;1062;52.538;13.400;2023-07-31T13:24:26;1.80;;;1.70;;
2111;SDS011;1062;52.538;13.400;2023-07-31T13:26:52;2.27;;;1.90;;
2111;SDS011;1062;52.538;13.400;2023-07-31T13:29:17;2.60;;;2.40;;
2111;SDS011;1062;52.538;13.400;2023-07-31T13:31:43;2.83;;;1.80;;
2111;SDS011;1062;52.538;13.400;2023-07-31T13:34:09;3.03;;;2.03;;
2111;SDS011;1062;52.538;13.400;2023-07-31T13:36:34;2.13;;;1.93;;
2111;SDS011;1062;52.538;13.400;2023-07-31T13:39:02;2.30;;;2.10;;
2111;SDS011;1062;52.538;13.400;2023-07-31T13:41:28;3.27;;;1.70;;
2111;SDS011;1062;52.538;13.400;2023-07-31T13:43:53;2.20;;;2.00;;
2111;SDS011;1062;52.538;13.400;2023-07-31T13:46:19;3.97;;;2.60;;
2111;SDS011;1062;52.538;13.400;2023-07-31T13:48:44;3.87;;;2.47;;
2111;SDS011;1062;52.538;13.400;2023-07-31T13:51:10;4.00;;;2.20;;
2111;SDS011;1062;52.538;13.400;2023-07-31T13:53:35;2.90;;;2.07;;
2111;SDS011;1062;52.538;13.400;2023-07-31T13:56:01;4.07;;;2.20;;
2111;SDS011;1062;52.538;13.400;2023-07-31T13:58:27;5.23;;;2.10;;
2111;SDS011;1062;52.538;13.400;2023-07-31T14:00:52;3.40;;;2.67;;
2111;SDS011;1062;52.538;13.400;2023-07-31T14:03:18;3.83;;;2.20;;
2111;SDS011;1062;52.538;13.400;2023-07-31T14:05:43;3.80;;;2.80;;
2111;SDS011;1062;52.538;13.400;2023-07-31T14:08:09;3.90;;;3.23;;
2111;SDS011;1062;52.538;13.400;2023-07-31T14:10:35;3.20;;;2.53;;
2111;SDS011;1062;52.538;13.400;2023-07-31T14:13:00;3.40;;;2.37;;
2111;SDS011;1062;52.538;13.400;2023-07-31T14:15:26;3.40;;;2.70;;
2111;SDS011;1062;52.538;13.400;2023-07-31T14:17:51;5.10;;;2.67;;
2111;SDS011;1062;52.538;13.400;2023-07-31T14:20:17;6.60;;;2.33;;
2111;SDS011;1062;52.538;13.400;2023-07-31T14:22:43;4.23;;;2.97;;
2111;SDS011;1062;52.538;13.400;2023-07-31T14:25:09;3.40;;;2.47;;
2111;SDS011;1062;52.538;13.400;2023-07-31T14:27:35;3.53;;;2.60;;
2111;SDS011;1062;52.538;13.400;2023-07-31T14:30:02;7.37;;;2.57;;
2111;SDS011;1062;52.538;13.400;2023-07-31T14:32:28;3.70;;;2.40;;
2111;SDS011;1062;52.538;13.400;2023-07-31T14:34:53;4.10;;;2.23;;
2111;SDS011;1062;52.538;13.400;2023-07-31T14:37:20;5.23;;;3.70;;
2111;SDS011;1062;52.538;13.400;2023-07-31T14:39:46;5.10;;;2.80;;
2111;SDS011;1062;52.538;13.400;2023-07-31T14:42:11;3.30;;;2.60;;
2111;SDS011;1062;52.538;13.400;2023-07-31T14:44:37;3.00;;;2.50;;
2111;SDS011;1062;52.538;13.400;2023-07-31T14:47:03;3.90;;;2.53;;
2111;SDS011;1062;52.538;13.400;2023-07-31T14:49:29;3.80;;;2.73;;
2111;SDS011;1062;52.538;13.400;2023-07-31T14:51:54;4.90;;;3.80;;
2111;SDS011;1062;52.538;13.400;2023-07-31T14:54:20;3.73;;;2.13;;
2111;SDS011;1062;52.538;13.400;2023-07-31T14:56:46;5.00;;;3.37;;
2111;SDS011;1062;52.538;13.400;2023-07-31T14:59:11;4.53;;;4.03;;
2111;SDS011;1062;52.538;13.400;2023-07-31T15:01:37;3.27;;;2.60;;
2111;SDS011;1062;52.538;13.400;2023-07-31T15:04:03;5.03;;;2.63;;
2111;SDS011;1062;52.538;13.400;2023-07-31T15:06:29;2.30;;;2.03;;
2111;SDS011;1062;52.538;13.400;2023-07-31T15:08:54;8.00;;;2.73;;
2111;SDS011;1062;52.538;13.400;2023-07-31T15:11:20;4.57;;;2.60;;
2111;SDS011;1062;52.538;13.400;2023-07-31T15:13:46;2.90;;;2.10;;
2111;SDS011;1062;52.538;13.400;2023-07-31T15:16:11;4.53;;;2.60;;
2111;SDS011;1062;52.538;13.400;2023-07-31T15:18:37;3.37;;;2.53;;
2111;SDS011;1062;52.538;13.400;2023-07-31T15:21:03;2.93;;;2.63;;
2111;SDS011;1062;52.538;13.400;2023-07-31T15:23:30;11.03;;;2.77;;
2111;SDS011;1062;52.538;13.400;2023-07-31T15:25:56;3.47;;;2.47;;
2111;SDS011;1062;52.538;13.400;2023-07-31T15:28:22;3.00;;;2.47;;
2111;SDS011;1062;52.538;13.400;2023-07-31T15:30:47;3.70;;;2.50;;